createdAt,value
2023-03-20T00:00:59.806Z,8.20
2023-03-20T00:01:59.776Z,6.70
2023-03-20T00:02:59.777Z,7.40
2023-03-20T00:03:59.898Z,7.90
2023-03-20T00:04:59.822Z,6.50
2023-03-20T00:05:59.732Z,6.30
2023-03-20T00:06:59.719Z,6.20
2023-03-20T00:07:59.790Z,6.10
2023-03-20T00:08:59.709Z,4.70
2023-03-20T00:10:00.715Z,7.50
2023-03-20T00:10:59.680Z,5.90
2023-03-20T00:11:59.722Z,6.10
2023-03-20T00:12:59.665Z,5.70
2023-03-20T00:13:59.677Z,6.00
2023-03-20T00:14:59.634Z,6.80
2023-03-20T00:15:59.640Z,5.80
2023-03-20T00:16:59.641Z,6.30
2023-03-20T00:17:59.591Z,5.80
2023-03-20T00:18:59.615Z,5.60
2023-03-20T00:19:59.616Z,6.10
2023-03-20T00:20:59.557Z,7.30
2023-03-20T00:21:59.579Z,5.20
2023-03-20T00:22:59.576Z,6.80
2023-03-20T01:10:21.150Z,6.50
2023-03-20T01:11:04.675Z,7.50
2023-03-20T01:12:04.684Z,7.00
2023-03-20T01:13:04.653Z,6.70
2023-03-20T01:14:04.638Z,7.40
2023-03-20T01:15:04.651Z,8.20
2023-03-20T01:16:04.612Z,6.70
2023-03-20T01:17:04.626Z,6.80
2023-03-20T01:18:04.589Z,6.80
2023-03-20T01:19:04.599Z,7.60
2023-03-20T01:20:04.602Z,7.20
2023-03-20T01:21:04.557Z,7.00
2023-03-20T01:22:04.557Z,6.20
2023-03-20T01:23:04.550Z,6.70
2023-03-20T01:24:04.506Z,7.30
2023-03-20T01:25:04.526Z,6.70
2023-03-20T01:26:04.495Z,7.60
2023-03-20T01:27:04.468Z,7.40
2023-03-20T01:28:04.502Z,8.00
2023-03-20T01:29:04.455Z,6.80
2023-03-20T01:30:04.438Z,6.30
2023-03-20T01:31:04.455Z,7.40
2023-03-20T01:32:04.566Z,6.90
2023-03-20T01:33:04.452Z,8.00
2023-03-20T01:34:04.416Z,6.40
2023-03-20T01:35:04.377Z,7.30
2023-03-20T01:36:04.433Z,6.60
2023-03-20T01:37:04.399Z,7.50
2023-03-20T01:38:04.382Z,7.20
2023-03-20T01:39:04.362Z,7.50
2023-03-20T01:40:04.340Z,7.60
2023-03-20T01:41:04.350Z,7.00
2023-03-20T01:42:04.322Z,9.00
2023-03-20T01:43:04.339Z,8.00
2023-03-20T01:44:04.295Z,7.40
2023-03-20T01:45:04.284Z,9.10
2023-03-20T01:46:04.328Z,9.10
2023-03-20T01:47:04.242Z,7.60
2023-03-20T01:48:04.287Z,7.60
2023-03-20T01:49:04.226Z,6.10
2023-03-20T01:50:04.225Z,7.20
2023-03-20T01:51:04.236Z,8.40
2023-03-20T01:52:04.202Z,7.20
2023-03-20T01:53:04.218Z,7.40
2023-03-20T01:54:04.236Z,6.60
2023-03-20T01:55:04.211Z,7.50
2023-03-20T01:56:04.182Z,7.80
2023-03-20T01:57:04.296Z,7.60
2023-03-20T01:58:05.310Z,6.60
2023-03-20T01:59:04.116Z,6.20
2023-03-20T02:00:04.122Z,6.90
2023-03-20T02:01:04.139Z,6.50
2023-03-20T02:02:04.122Z,6.60
2023-03-20T02:03:04.066Z,7.10
2023-03-20T02:04:04.061Z,7.10
2023-03-20T02:05:04.120Z,7.20
2023-03-20T02:06:04.065Z,5.30
2023-03-20T02:07:04.076Z,9.40
2023-03-20T02:08:04.041Z,6.30
2023-03-20T02:09:04.019Z,6.70
2023-03-20T02:10:03.996Z,7.40
2023-03-20T02:11:04.010Z,7.80
2023-03-20T02:12:03.951Z,6.90
2023-03-20T02:13:03.990Z,9.10
2023-03-20T02:14:03.951Z,6.60
2023-03-20T02:15:03.940Z,7.40
2023-03-20T02:16:03.910Z,7.20
2023-03-20T02:17:03.977Z,7.50
2023-03-20T02:18:03.896Z,7.50
2023-03-20T02:19:03.900Z,6.90
2023-03-20T02:20:03.886Z,8.70
2023-03-20T02:21:03.879Z,11.30
2023-03-20T02:22:03.851Z,7.30
2023-03-20T02:23:03.844Z,7.20
2023-03-20T02:24:03.863Z,7.20
2023-03-20T02:25:03.842Z,7.00
2023-03-20T02:26:03.841Z,7.20
2023-03-20T02:27:03.793Z,7.40
2023-03-20T02:28:03.795Z,6.20
2023-03-20T02:29:03.774Z,7.50
2023-03-20T02:30:03.766Z,6.60
2023-03-20T02:31:03.875Z,6.30
2023-03-20T02:32:03.754Z,7.30
2023-03-20T02:33:03.748Z,8.40
2023-03-20T02:34:03.729Z,5.80
2023-03-20T02:35:03.707Z,5.80
2023-03-20T02:36:03.736Z,6.40
2023-03-20T02:37:03.720Z,7.10
2023-03-20T02:38:03.697Z,5.30
2023-03-20T02:39:03.673Z,7.20
2023-03-20T02:40:03.657Z,5.70
2023-03-20T02:41:03.644Z,5.90
2023-03-20T02:42:03.630Z,7.40
2023-03-20T02:43:03.624Z,7.90
2023-03-20T02:44:03.628Z,6.30
2023-03-20T02:45:03.620Z,6.40
2023-03-20T02:46:03.621Z,6.00
2023-03-20T02:47:03.617Z,6.20
2023-03-20T02:48:03.582Z,7.60
2023-03-20T02:49:03.567Z,7.10
2023-03-20T02:50:03.525Z,5.70
2023-03-20T02:51:03.522Z,8.70
2023-03-20T02:52:03.555Z,6.40
2023-03-20T02:53:03.530Z,7.10
2023-03-20T02:54:03.492Z,6.80
2023-03-20T02:55:03.484Z,6.30
2023-03-20T02:56:03.460Z,6.80
2023-03-20T02:57:03.520Z,7.30
2023-03-20T02:58:03.433Z,6.50
2023-03-20T02:59:03.472Z,6.60
2023-03-20T03:00:03.412Z,5.60
2023-03-20T03:01:03.423Z,8.60
2023-03-20T03:02:03.511Z,7.50
2023-03-20T03:03:03.458Z,6.40
2023-03-20T03:04:03.409Z,9.80
2023-03-20T03:05:03.354Z,8.50
2023-03-20T03:06:03.353Z,7.20
2023-03-20T03:07:03.337Z,6.70
2023-03-20T03:08:03.345Z,8.70
2023-03-20T03:09:03.351Z,7.60
2023-03-20T03:10:03.300Z,7.70
2023-03-20T03:11:03.283Z,7.20
2023-03-20T03:12:03.272Z,6.90
2023-03-20T03:13:03.302Z,7.00
2023-03-20T03:14:03.303Z,6.00
2023-03-20T03:15:03.257Z,6.50
2023-03-20T03:16:03.353Z,6.70
2023-03-20T03:17:03.222Z,6.30
2023-03-20T03:18:03.238Z,6.00
2023-03-20T03:19:03.234Z,7.30
2023-03-20T03:20:03.192Z,7.50
2023-03-20T03:21:03.198Z,7.40
2023-03-20T03:22:03.179Z,6.30
2023-03-20T03:23:03.155Z,7.10
2023-03-20T03:24:03.158Z,7.60
2023-03-20T03:25:03.186Z,8.10
2023-03-20T03:26:03.115Z,6.60
2023-03-20T03:27:03.107Z,6.40
2023-03-20T03:28:03.100Z,5.40
2023-03-20T03:29:03.101Z,6.70
2023-03-20T03:30:03.096Z,6.80
2023-03-20T03:31:03.121Z,6.50
2023-03-20T03:32:03.080Z,6.30
2023-03-20T03:33:03.156Z,5.90
2023-03-20T03:34:03.039Z,7.20
2023-03-20T03:35:03.025Z,6.90
2023-03-20T03:36:03.029Z,6.40
2023-03-20T03:37:03.045Z,5.80
2023-03-20T03:38:02.982Z,6.30
2023-03-20T03:39:02.969Z,7.40
2023-03-20T03:40:02.953Z,6.40
2023-03-20T03:41:03.008Z,6.20
2023-03-20T03:42:02.985Z,8.10
2023-03-20T03:43:02.964Z,6.40
2023-03-20T03:44:02.927Z,6.60
2023-03-20T03:45:02.943Z,6.60
2023-03-20T03:46:02.908Z,6.80
2023-03-20T03:47:03.037Z,6.80
2023-03-20T03:48:02.876Z,6.40
2023-03-20T03:49:02.856Z,7.40
2023-03-20T03:50:02.843Z,5.40
2023-03-20T03:51:02.897Z,7.00
2023-03-20T03:52:02.843Z,7.80
2023-03-20T03:53:02.815Z,5.70
2023-03-20T03:54:02.804Z,5.50
2023-03-20T03:55:02.798Z,7.00
2023-03-20T03:56:02.862Z,6.20
2023-03-20T03:57:02.772Z,6.30
2023-03-20T03:58:02.785Z,6.50
2023-03-20T03:59:02.785Z,6.20
2023-03-20T04:00:02.743Z,5.70
2023-03-20T04:01:02.750Z,8.60
2023-03-20T04:02:02.737Z,7.80
2023-03-20T04:03:02.742Z,6.00
2023-03-20T04:04:04.794Z,5.30
2023-03-20T04:05:02.785Z,5.90
2023-03-20T04:06:02.696Z,6.10
2023-03-20T04:07:02.650Z,7.10
2023-03-20T04:08:02.661Z,5.70
2023-03-20T04:09:02.628Z,5.60
2023-03-20T04:10:02.663Z,5.60
2023-03-20T04:11:02.644Z,6.00
2023-03-20T04:12:02.593Z,6.60
2023-03-20T04:13:02.635Z,6.30
2023-03-20T04:14:02.569Z,7.10
2023-03-20T04:15:03.477Z,6.70
2023-03-20T04:16:02.591Z,6.70
2023-03-20T04:17:02.592Z,5.70
2023-03-20T04:18:02.536Z,6.40
2023-03-20T04:19:02.524Z,6.90
2023-03-20T04:20:02.501Z,5.80
2023-03-20T04:21:02.501Z,6.20
2023-03-20T04:22:02.483Z,6.30
2023-03-20T04:23:02.527Z,4.80
2023-03-20T04:24:02.476Z,9.80
2023-03-20T04:25:02.444Z,4.80
2023-03-20T04:26:02.476Z,5.60
2023-03-20T04:27:02.444Z,7.20
2023-03-20T04:28:02.469Z,5.40
2023-03-20T04:29:02.398Z,6.10
2023-03-20T04:30:02.397Z,6.20
2023-03-20T04:31:02.410Z,7.00
2023-03-20T04:32:02.458Z,7.00
2023-03-20T04:33:02.450Z,5.90
2023-03-20T04:34:02.366Z,9.70
2023-03-20T04:35:02.360Z,7.50
2023-03-20T04:36:02.426Z,5.10
2023-03-20T04:37:02.402Z,7.90
2023-03-20T04:38:02.341Z,6.00
2023-03-20T04:39:02.331Z,6.10
2023-03-20T04:40:02.299Z,6.80
2023-03-20T04:41:02.282Z,6.00
2023-03-20T04:42:02.249Z,8.40
2023-03-20T04:43:02.276Z,6.40
2023-03-20T04:44:02.232Z,5.00
2023-03-20T04:45:02.222Z,5.50
2023-03-20T04:46:02.280Z,6.10
2023-03-20T04:47:02.216Z,6.30
2023-03-20T04:48:02.210Z,6.80
2023-03-20T04:49:02.170Z,6.20
2023-03-20T04:50:02.176Z,7.80
2023-03-20T04:51:02.185Z,5.70
2023-03-20T04:52:02.142Z,5.90
2023-03-20T04:53:02.206Z,5.80
2023-03-20T04:54:02.123Z,4.90
2023-03-20T04:55:02.128Z,6.40
2023-03-20T04:56:02.351Z,7.90
2023-03-20T04:57:02.084Z,6.50
2023-03-20T04:58:02.111Z,5.10
2023-03-20T04:59:02.096Z,7.00
2023-03-20T05:00:02.048Z,6.00
2023-03-20T05:01:02.104Z,5.90
2023-03-20T05:02:02.044Z,5.10
2023-03-20T05:03:02.033Z,5.20
2023-03-20T05:04:02.056Z,6.00
2023-03-20T05:05:02.009Z,6.50
2023-03-20T05:06:01.989Z,5.20
2023-03-20T05:07:02.056Z,6.70
2023-03-20T05:08:02.005Z,6.60
2023-03-20T05:09:01.955Z,5.80
2023-03-20T05:10:01.947Z,6.40
2023-03-20T05:11:01.948Z,5.70
2023-03-20T05:12:01.958Z,5.90
2023-03-20T05:13:01.944Z,7.00
2023-03-20T05:14:01.893Z,7.30
2023-03-20T05:15:01.897Z,5.10
2023-03-20T05:16:01.919Z,5.10
2023-03-20T05:17:02.087Z,7.80
2023-03-20T05:18:01.857Z,10.60
2023-03-20T05:19:01.957Z,6.00
2023-03-20T05:20:01.856Z,6.10
2023-03-20T05:21:01.846Z,6.50
2023-03-20T05:22:01.804Z,5.20
2023-03-20T05:23:01.776Z,5.40
2023-03-20T05:24:01.785Z,6.60
2023-03-20T05:25:01.797Z,5.80
2023-03-20T05:26:01.798Z,7.30
2023-03-20T05:27:01.852Z,6.30
2023-03-20T05:28:01.747Z,5.50
2023-03-20T05:29:01.704Z,5.80
2023-03-20T05:30:01.740Z,6.40
2023-03-20T05:31:01.772Z,7.10
2023-03-20T05:32:01.683Z,6.40
2023-03-20T05:33:01.801Z,7.90
2023-03-20T05:34:01.792Z,4.70
2023-03-20T05:35:01.646Z,5.00
2023-03-20T05:36:01.781Z,6.40
2023-03-20T05:37:01.632Z,5.30
2023-03-20T05:38:01.661Z,5.80
2023-03-20T05:39:01.643Z,7.90
2023-03-20T05:40:01.602Z,6.40
2023-03-20T05:41:01.672Z,5.80
2023-03-20T05:42:01.609Z,8.60
2023-03-20T05:43:01.601Z,5.90
2023-03-20T05:44:01.556Z,7.50
2023-03-20T05:45:01.594Z,5.50
2023-03-20T05:46:01.568Z,6.00
2023-03-20T05:47:01.528Z,7.50
2023-03-20T05:48:01.536Z,6.50
2023-03-20T05:49:01.513Z,5.60
2023-03-20T05:50:01.541Z,6.10
2023-03-20T05:51:01.481Z,7.70
2023-03-20T05:52:01.463Z,13.20
2023-03-20T05:53:01.475Z,11.40
2023-03-20T05:54:01.439Z,12.20
2023-03-20T05:55:01.457Z,9.10
2023-03-20T05:56:01.404Z,10.40
2023-03-20T05:57:01.488Z,9.80
2023-03-20T05:58:01.413Z,8.30
2023-03-20T05:59:01.390Z,7.70
2023-03-20T06:00:01.497Z,7.70
2023-03-20T06:01:01.369Z,6.90
2023-03-20T06:02:01.379Z,9.50
2023-03-20T06:03:01.371Z,6.30
2023-03-20T06:04:01.392Z,7.60
2023-03-20T06:05:01.320Z,10.20
2023-03-20T06:06:01.330Z,9.40
2023-03-20T06:07:01.284Z,7.20
2023-03-20T06:08:01.308Z,7.80
2023-03-20T06:09:01.301Z,6.80
2023-03-20T06:10:01.258Z,6.50
2023-03-20T06:11:01.250Z,6.50
2023-03-20T06:12:01.242Z,7.80
2023-03-20T06:13:01.278Z,8.90
2023-03-20T06:14:01.223Z,7.60
2023-03-20T06:15:01.208Z,6.60
2023-03-20T06:16:01.240Z,6.60
2023-03-20T06:17:01.159Z,7.70
2023-03-20T06:18:01.214Z,6.70
2023-03-20T06:19:01.190Z,7.30
2023-03-20T06:20:01.142Z,7.20
2023-03-20T06:21:01.129Z,6.90
2023-03-20T06:22:01.208Z,7.60
2023-03-20T06:23:01.136Z,6.30
2023-03-20T06:24:01.116Z,6.80
2023-03-20T06:25:01.104Z,6.60
2023-03-20T06:26:01.104Z,6.60
2023-03-20T06:27:01.055Z,6.40
2023-03-20T06:28:01.122Z,6.40
2023-03-20T06:29:01.037Z,8.10
2023-03-20T06:30:01.056Z,5.70
2023-03-20T06:31:02.040Z,5.30
2023-03-20T06:32:01.009Z,7.10
2023-03-20T06:33:01.116Z,6.60
2023-03-20T06:34:00.997Z,5.00
2023-03-20T07:02:14.025Z,6.40
2023-03-20T07:03:13.910Z,8.20
2023-03-20T07:04:14.554Z,7.00
2023-03-20T07:05:13.936Z,7.00
2023-03-20T07:06:13.864Z,6.60
2023-03-20T07:07:13.873Z,12.10
2023-03-20T07:08:13.875Z,8.50
2023-03-20T07:09:14.075Z,7.50
2023-03-20T07:10:13.831Z,7.40
2023-03-20T07:11:13.829Z,7.00
2023-03-20T07:12:13.824Z,7.20
2023-03-20T07:13:13.795Z,7.00
2023-03-20T07:14:13.767Z,6.40
2023-03-20T07:15:13.760Z,6.10
2023-03-20T07:16:13.806Z,6.20
2023-03-20T07:17:13.739Z,6.40
2023-03-20T07:18:13.928Z,6.50
2023-03-20T07:19:13.751Z,7.40
2023-03-20T07:20:13.689Z,7.40
2023-03-20T07:21:13.683Z,6.20
2023-03-20T07:22:13.688Z,9.30
2023-03-20T07:23:13.693Z,9.60
2023-03-20T07:24:13.673Z,7.80
2023-03-20T07:25:13.684Z,6.70
2023-03-20T07:26:13.796Z,5.40
2023-03-20T07:27:13.628Z,6.70
2023-03-20T07:28:13.717Z,7.10
2023-03-20T07:29:13.613Z,9.00
2023-03-20T07:30:13.602Z,7.10
2023-03-20T07:31:13.623Z,6.20
2023-03-20T07:32:13.594Z,6.20
2023-03-20T07:33:13.583Z,7.60
2023-03-20T07:34:13.548Z,7.20
2023-03-20T07:35:13.556Z,8.40
2023-03-20T07:36:13.533Z,6.80
2023-03-20T07:37:13.528Z,10.10
2023-03-20T07:38:13.503Z,8.80
2023-03-20T07:39:13.507Z,7.40
2023-03-20T07:40:16.559Z,7.10
2023-03-20T07:41:13.456Z,7.90
2023-03-20T07:42:13.444Z,7.60
2023-03-20T07:43:13.422Z,8.10
2023-03-20T07:44:13.452Z,8.00
2023-03-20T07:45:13.422Z,8.50
2023-03-20T07:46:13.399Z,8.00
2023-03-20T07:47:14.426Z,7.60
2023-03-20T07:48:13.375Z,8.00
2023-03-20T07:49:13.387Z,9.50
2023-03-20T07:50:13.378Z,6.40
2023-03-20T07:51:13.366Z,7.00
2023-03-20T07:52:13.338Z,8.20
2023-03-20T07:53:13.331Z,9.30
2023-03-20T07:54:13.339Z,6.60
2023-03-20T07:55:13.287Z,7.70
2023-03-20T07:56:13.293Z,7.30
2023-03-20T07:57:13.286Z,9.50
2023-03-20T07:58:13.278Z,6.40
2023-03-20T07:59:13.289Z,10.50
2023-03-20T08:00:13.262Z,6.20
2023-03-20T08:01:13.256Z,11.20
2023-03-20T08:02:13.195Z,8.30
2023-03-20T08:03:13.378Z,7.70
2023-03-20T08:04:13.248Z,8.10
2023-03-20T08:05:13.210Z,8.40
2023-03-20T08:06:13.177Z,11.10
2023-03-20T08:07:13.179Z,10.10
2023-03-20T08:08:13.131Z,8.30
2023-03-20T08:09:13.152Z,10.90
2023-03-20T08:10:13.133Z,7.80
2023-03-20T08:11:13.101Z,6.50
2023-03-20T08:12:13.164Z,8.10
2023-03-20T08:13:13.102Z,9.30
2023-03-20T08:14:13.093Z,6.20
2023-03-20T08:15:13.101Z,10.30
2023-03-20T08:16:13.128Z,9.30
2023-03-20T08:17:16.138Z,9.10
2023-03-20T08:18:13.016Z,11.30
2023-03-20T08:19:13.042Z,10.90
2023-03-20T08:20:12.989Z,9.00
2023-03-20T08:21:13.020Z,9.20
2023-03-20T08:22:13.027Z,9.90
2023-03-20T08:23:12.992Z,9.90
2023-03-20T08:24:12.959Z,8.50
2023-03-20T08:25:13.181Z,8.30
2023-03-20T08:26:12.926Z,9.70
2023-03-20T08:27:13.009Z,10.40
2023-03-20T08:28:12.948Z,9.40
2023-03-20T08:29:12.899Z,10.50
2023-03-20T08:30:12.921Z,9.40
2023-03-20T08:31:12.993Z,13.00
2023-03-20T08:32:12.900Z,8.20
2023-03-20T08:33:12.916Z,13.20
2023-03-20T08:34:12.843Z,7.80
2023-03-20T08:35:29.659Z,7.90
2023-03-20T08:36:13.879Z,8.80
2023-03-20T08:37:12.828Z,7.80
2023-03-20T08:38:12.814Z,8.60
2023-03-20T08:39:12.849Z,9.80
2023-03-20T08:40:12.811Z,7.90
2023-03-20T08:41:12.753Z,9.60
2023-03-20T08:42:12.755Z,8.70
2023-03-20T08:43:12.735Z,7.30
2023-03-20T08:44:12.774Z,10.70
2023-03-20T08:45:12.768Z,12.10
2023-03-20T08:46:12.775Z,9.00
2023-03-20T08:47:12.694Z,10.50
2023-03-20T08:48:12.910Z,13.50
2023-03-20T08:49:12.674Z,10.20
2023-03-20T08:50:12.714Z,12.80
2023-03-20T08:51:12.651Z,11.60
2023-03-20T08:52:12.635Z,11.10
2023-03-20T08:53:12.647Z,11.10
2023-03-20T08:54:12.605Z,11.90
2023-03-20T08:55:12.642Z,11.40
2023-03-20T08:56:12.693Z,10.80
2023-03-20T08:57:12.592Z,13.70
2023-03-20T08:58:12.595Z,14.20
2023-03-20T08:59:12.544Z,14.00
2023-03-20T09:00:12.573Z,10.70
2023-03-20T09:01:15.627Z,8.00
2023-03-20T09:02:12.972Z,9.90
2023-03-20T09:03:12.545Z,10.50
2023-03-20T09:04:12.474Z,12.30
2023-03-20T09:05:12.510Z,13.60
2023-03-20T09:06:12.589Z,11.00
2023-03-20T09:07:12.470Z,10.10
2023-03-20T09:08:12.483Z,11.90
2023-03-20T09:09:12.456Z,9.50
2023-03-20T09:10:12.440Z,11.90
2023-03-20T09:11:12.396Z,11.70
2023-03-20T09:12:12.406Z,14.60
2023-03-20T09:13:26.056Z,14.00
2023-03-20T09:14:13.410Z,12.40
2023-03-20T09:15:12.374Z,15.60
2023-03-20T09:16:14.841Z,12.90
2023-03-20T09:17:12.360Z,12.60
2023-03-20T09:18:12.381Z,13.10
2023-03-20T09:19:12.317Z,11.10
2023-03-20T09:20:12.322Z,12.50
2023-03-20T09:21:12.296Z,13.30
2023-03-20T09:22:12.290Z,11.60
2023-03-20T09:23:12.291Z,20.50
2023-03-20T09:24:12.254Z,14.10
2023-03-20T09:25:12.229Z,14.70
2023-03-20T09:26:12.252Z,22.30
2023-03-20T09:27:12.251Z,16.80
2023-03-20T09:28:12.230Z,12.60
2023-03-20T09:29:19.077Z,13.10
2023-03-20T09:30:12.173Z,12.10
2023-03-20T09:31:12.276Z,12.70
2023-03-20T09:32:12.182Z,17.70
2023-03-20T09:33:12.244Z,11.90
2023-03-20T09:34:12.136Z,14.70
2023-03-20T09:35:12.144Z,15.70
2023-03-20T09:36:12.174Z,13.10
2023-03-20T09:37:12.156Z,10.80
2023-03-20T09:38:12.084Z,11.00
2023-03-20T09:39:12.097Z,10.20
2023-03-20T09:40:12.082Z,13.20
2023-03-20T09:41:12.084Z,13.60
2023-03-20T09:42:12.087Z,12.50
2023-03-20T09:43:12.030Z,9.20
2023-03-20T09:44:12.035Z,10.20
2023-03-20T09:45:12.239Z,10.10
2023-03-20T09:46:12.037Z,11.30
2023-03-20T09:47:20.338Z,13.00
2023-03-20T09:48:12.988Z,9.40
2023-03-20T09:49:11.969Z,9.80
2023-03-20T09:50:11.991Z,11.30
2023-03-20T09:51:12.020Z,11.00
2023-03-20T09:52:11.939Z,9.70
2023-03-20T09:53:11.916Z,9.70
2023-03-20T09:54:11.963Z,9.40
2023-03-20T09:55:12.093Z,11.60
2023-03-20T09:56:11.962Z,10.90
2023-03-20T09:57:11.870Z,12.90
2023-03-20T09:58:12.089Z,12.10
2023-03-20T09:59:11.925Z,13.90
2023-03-20T10:00:11.902Z,10.60
2023-03-20T10:01:11.855Z,11.70
2023-03-20T10:02:11.878Z,8.70
2023-03-20T10:03:11.794Z,9.50
2023-03-20T10:04:11.883Z,15.50
2023-03-20T10:05:11.814Z,7.10
2023-03-20T10:06:11.828Z,8.30
2023-03-20T10:07:11.760Z,7.70
2023-03-20T10:08:12.301Z,9.80
2023-03-20T10:09:11.723Z,11.40
2023-03-20T10:10:11.705Z,8.90
2023-03-20T10:11:11.772Z,9.60
2023-03-20T10:12:11.714Z,10.60
2023-03-20T10:13:11.691Z,11.30
2023-03-20T10:14:11.680Z,11.40
2023-03-20T10:15:11.669Z,11.90
2023-03-20T10:16:11.712Z,10.50
2023-03-20T10:17:11.669Z,12.00
2023-03-20T10:18:11.671Z,11.50
2023-03-20T10:19:11.640Z,9.80
2023-03-20T10:20:11.617Z,9.10
2023-03-20T10:21:11.628Z,10.10
2023-03-20T10:22:11.613Z,10.10
2023-03-20T10:23:11.563Z,11.50
2023-03-20T10:24:11.587Z,9.80
2023-03-20T10:25:11.541Z,11.90
2023-03-20T10:26:11.654Z,10.40
2023-03-20T10:27:11.520Z,11.70
2023-03-20T10:28:11.517Z,11.00
2023-03-20T10:29:11.788Z,10.10
2023-03-20T10:30:11.552Z,10.80
2023-03-20T10:31:11.492Z,9.30
2023-03-20T10:32:11.490Z,9.90
2023-03-20T10:33:11.531Z,9.90
2023-03-20T10:34:11.486Z,9.80
2023-03-20T10:35:11.441Z,11.40
2023-03-20T10:36:11.518Z,9.70
2023-03-20T10:37:11.428Z,9.80
2023-03-20T10:38:11.448Z,9.00
2023-03-20T10:39:11.413Z,13.10
2023-03-20T10:40:11.392Z,11.70
2023-03-20T10:41:11.363Z,10.00
2023-03-20T10:42:11.367Z,9.60
2023-03-20T10:43:11.420Z,12.50
2023-03-20T10:44:11.325Z,9.70
2023-03-20T10:45:11.346Z,12.30
2023-03-20T10:46:11.315Z,9.20
2023-03-20T10:47:11.418Z,9.40
2023-03-20T10:48:12.548Z,9.50
2023-03-20T10:49:11.270Z,8.50
2023-03-20T10:50:11.316Z,10.10
2023-03-20T10:51:11.266Z,8.50
2023-03-20T10:52:11.248Z,9.90
2023-03-20T10:53:11.243Z,7.40
2023-03-20T10:54:11.220Z,9.80
2023-03-20T10:55:11.227Z,8.10
2023-03-20T10:56:11.250Z,10.90
2023-03-20T10:57:11.172Z,8.80
2023-03-20T10:58:11.177Z,10.80
2023-03-20T10:59:11.194Z,10.10
2023-03-20T11:00:11.170Z,10.00
2023-03-20T11:01:11.195Z,10.70
2023-03-20T11:02:11.149Z,9.10
2023-03-20T11:03:11.103Z,10.80
2023-03-20T11:04:11.153Z,9.60
2023-03-20T11:05:11.085Z,8.90
2023-03-20T11:06:11.102Z,13.90
2023-03-20T11:07:11.068Z,11.00
2023-03-20T11:08:11.452Z,12.10
2023-03-20T11:09:11.094Z,12.40
2023-03-20T11:10:11.095Z,14.60
2023-03-20T11:11:11.051Z,13.00
2023-03-20T11:12:11.058Z,14.40
2023-03-20T11:13:11.015Z,10.20
2023-03-20T11:14:11.000Z,9.40
2023-03-20T11:15:10.990Z,7.30
2023-03-20T11:16:11.136Z,9.00
2023-03-20T11:17:11.008Z,12.00
2023-03-20T11:18:10.947Z,11.30
2023-03-20T11:19:11.249Z,12.80
2023-03-20T11:20:10.928Z,10.70
2023-03-20T11:21:10.887Z,11.50
2023-03-20T11:22:10.941Z,12.80
2023-03-20T11:23:10.881Z,10.50
2023-03-20T11:24:11.702Z,11.20
2023-03-20T11:25:10.935Z,11.20
2023-03-20T11:26:10.885Z,11.90
2023-03-20T11:27:10.825Z,13.30
2023-03-20T11:28:10.844Z,10.60
2023-03-20T11:29:10.801Z,12.00
2023-03-20T11:30:10.845Z,11.10
2023-03-20T11:31:10.772Z,12.20
2023-03-20T11:32:10.840Z,11.10
2023-03-20T11:33:10.755Z,11.30
2023-03-20T11:34:10.792Z,12.70
2023-03-20T11:35:10.756Z,10.80
2023-03-20T11:36:10.747Z,10.30
2023-03-20T11:37:11.130Z,12.20
2023-03-20T11:38:10.855Z,11.40
2023-03-20T11:39:10.701Z,11.00
2023-03-20T11:40:10.683Z,10.50
2023-03-20T11:41:10.662Z,10.00
2023-03-20T11:42:10.656Z,10.80
2023-03-20T11:43:10.673Z,10.50
2023-03-20T11:44:10.676Z,10.20
2023-03-20T11:45:10.623Z,12.90
2023-03-20T11:46:11.127Z,11.70
2023-03-20T11:47:10.595Z,12.70
2023-03-20T11:48:10.599Z,11.30
2023-03-20T11:49:10.596Z,12.80
2023-03-20T11:50:10.604Z,11.20
2023-03-20T11:51:10.568Z,11.40
2023-03-20T11:52:10.602Z,13.70
2023-03-20T11:53:10.513Z,11.00
2023-03-20T11:54:10.530Z,12.00
2023-03-20T11:55:10.510Z,14.70
2023-03-20T11:56:10.488Z,12.00
2023-03-20T11:57:10.498Z,13.80
2023-03-20T11:58:10.657Z,13.90
2023-03-20T11:59:10.520Z,12.80
2023-03-20T12:00:10.440Z,15.70
2023-03-20T12:01:10.467Z,14.00
2023-03-20T12:02:10.533Z,15.90
2023-03-20T12:03:10.431Z,14.90
2023-03-20T12:04:10.415Z,14.30
2023-03-20T12:05:12.162Z,14.30
2023-03-20T12:06:10.764Z,14.30
2023-03-20T12:07:10.423Z,16.30
2023-03-20T12:08:10.361Z,16.70
2023-03-20T12:09:10.342Z,16.00
2023-03-20T12:10:10.386Z,17.90
2023-03-20T12:11:10.315Z,15.60
2023-03-20T12:12:10.363Z,14.90
2023-03-20T12:13:10.287Z,18.70
2023-03-20T12:14:10.278Z,17.70
2023-03-20T12:15:10.298Z,15.40
2023-03-20T12:16:10.382Z,18.60
2023-03-20T12:17:10.296Z,16.80
2023-03-20T12:18:10.275Z,17.70
2023-03-20T12:19:10.263Z,18.20
2023-03-20T12:20:10.254Z,16.40
2023-03-20T12:21:10.217Z,18.40
2023-03-20T12:22:10.185Z,17.80
2023-03-20T12:23:10.198Z,16.60
2023-03-20T12:24:10.209Z,16.60
2023-03-20T12:25:10.188Z,16.40
2023-03-20T12:26:11.159Z,16.90
2023-03-20T12:27:10.122Z,16.80
2023-03-20T12:28:10.173Z,16.70
2023-03-20T12:29:10.131Z,15.40
2023-03-20T12:30:10.083Z,17.00
2023-03-20T12:31:10.169Z,16.40
2023-03-20T12:32:10.093Z,18.00
2023-03-20T12:33:10.136Z,17.20
2023-03-20T12:34:10.054Z,17.80
2023-03-20T12:35:10.054Z,16.60
2023-03-20T12:36:10.146Z,14.80
2023-03-20T12:37:10.065Z,15.80
2023-03-20T12:38:10.006Z,15.80
2023-03-20T12:39:10.025Z,16.60
2023-03-20T12:40:10.041Z,15.50
2023-03-20T12:41:09.980Z,14.60
2023-03-20T12:42:09.968Z,15.20
2023-03-20T12:43:09.954Z,15.60
2023-03-20T12:44:09.948Z,13.80
2023-03-20T12:45:09.926Z,14.00
2023-03-20T12:46:09.913Z,16.70
2023-03-20T12:47:09.921Z,15.80
2023-03-20T12:48:09.945Z,12.60
2023-03-20T12:49:09.888Z,14.90
2023-03-20T12:50:09.867Z,16.40
2023-03-20T12:51:11.849Z,15.00
2023-03-20T12:52:09.870Z,14.00
2023-03-20T12:53:09.832Z,14.10
2023-03-20T12:54:09.852Z,15.20
2023-03-20T12:55:09.829Z,15.60
2023-03-20T12:56:09.822Z,14.40
2023-03-20T12:57:09.767Z,15.70
2023-03-20T12:58:09.811Z,16.30
2023-03-20T12:59:09.773Z,14.80
2023-03-20T13:00:09.768Z,15.60
2023-03-20T13:01:09.752Z,15.60
2023-03-20T13:02:09.760Z,15.60
2023-03-20T13:03:09.801Z,15.00
2023-03-20T13:04:09.716Z,16.20
2023-03-20T13:05:09.689Z,17.00
2023-03-20T13:06:09.726Z,16.10
2023-03-20T13:07:09.682Z,14.40
2023-03-20T13:08:09.653Z,14.50
2023-03-20T13:09:09.692Z,16.50
2023-03-20T13:10:09.699Z,15.90
2023-03-20T13:11:09.715Z,14.50
2023-03-20T13:12:09.622Z,16.30
2023-03-20T13:13:09.662Z,15.30
2023-03-20T13:14:09.583Z,17.20
2023-03-20T13:15:09.584Z,14.20
2023-03-20T13:16:09.662Z,13.00
2023-03-20T13:17:09.610Z,11.90
2023-03-20T13:18:09.581Z,12.10
2023-03-20T13:19:09.544Z,12.60
2023-03-20T13:20:09.654Z,11.30
2023-03-20T13:21:09.553Z,12.20
2023-03-20T13:22:09.499Z,11.90
2023-03-20T13:23:09.537Z,11.20
2023-03-20T13:24:11.736Z,12.40
2023-03-20T13:25:09.456Z,12.40
2023-03-20T13:26:09.463Z,10.50
2023-03-20T13:27:09.510Z,11.90
2023-03-20T13:28:09.444Z,11.60
2023-03-20T13:29:09.425Z,10.30
2023-03-20T13:30:09.538Z,11.50
2023-03-20T13:31:09.432Z,12.70
2023-03-20T13:32:09.432Z,11.40
2023-03-20T13:33:09.405Z,13.20
2023-03-20T13:34:09.384Z,12.00
2023-03-20T13:35:09.339Z,12.50
2023-03-20T13:36:09.395Z,14.10
2023-03-20T13:37:22.342Z,14.10
2023-03-20T13:38:10.363Z,12.40
2023-03-20T13:39:09.306Z,13.90
2023-03-20T13:40:09.359Z,13.70
2023-03-20T13:41:09.285Z,12.80
2023-03-20T13:42:09.273Z,13.20
2023-03-20T13:43:09.305Z,13.10
2023-03-20T13:44:09.236Z,14.00
2023-03-20T13:45:10.256Z,13.70
2023-03-20T13:46:09.230Z,11.30
2023-03-20T13:47:09.258Z,13.00
2023-03-20T13:48:09.246Z,12.20
2023-03-20T13:49:09.254Z,11.50
2023-03-20T13:50:09.175Z,11.40
2023-03-20T13:51:09.210Z,11.00
2023-03-20T13:52:09.161Z,11.60
2023-03-20T13:53:09.176Z,10.60
2023-03-20T13:54:09.134Z,10.10
2023-03-20T13:55:09.139Z,9.60
2023-03-20T13:56:09.107Z,9.50
2023-03-20T13:57:09.149Z,9.30
2023-03-20T13:58:09.106Z,8.90
2023-03-20T13:59:09.088Z,8.80
2023-03-20T14:00:09.114Z,9.20
2023-03-20T14:01:09.067Z,9.60
2023-03-20T14:02:09.061Z,9.40
2023-03-20T14:03:09.027Z,9.50
2023-03-20T14:04:09.087Z,9.40
2023-03-20T14:05:09.012Z,11.10
2023-03-20T14:06:08.967Z,8.50
2023-03-20T14:07:08.975Z,8.10
2023-03-20T14:08:08.991Z,7.70
2023-03-20T14:09:08.972Z,8.90
2023-03-20T14:10:08.941Z,9.10
2023-03-20T14:11:08.932Z,8.30
2023-03-20T14:12:08.909Z,9.20
2023-03-20T14:13:08.954Z,8.40
2023-03-20T14:14:08.920Z,7.70
2023-03-20T14:15:08.882Z,8.50
2023-03-20T14:16:08.903Z,8.70
2023-03-20T14:17:08.844Z,8.30
2023-03-20T14:18:08.841Z,8.10
2023-03-20T14:19:08.890Z,8.40
2023-03-20T14:20:08.810Z,9.10
2023-03-20T14:21:08.833Z,9.10
2023-03-20T14:22:08.803Z,8.10